Time;durP1;ratioP1;P1;durP2;ratioP2;P2;SDS_P1;SDS_P2;PMS_P1;PMS_P2;Temp;Humidity;BMP_temperature;BMP_pressure;BME280_temperature;BME280_humidity;BME280_pressure;Samples;Min_cycle;Max_cycle;Signal;HPM_P1;HPM_P2
2021/09/23 00:01:25;;;;;;;13.80;10.73;;;8.90;99.90;;;7.71;100.00;98788.59;5070332;28;20989;-71
2021/09/23 00:03:57;;;;;;;14.90;10.33;;;8.90;99.90;;;7.68;100.00;98791.66;5070780;28;20440;-72
2021/09/23 00:06:25;;;;;;;11.40;10.27;;;8.90;99.90;;;7.69;100.00;98785.25;5072517;28;20452;-71
2021/09/23 00:08:52;;;;;;;10.90;9.63;;;8.90;99.90;;;7.71;100.00;98793.97;5071815;28;20506;-73
2021/09/23 00:11:19;;;;;;;13.50;11.10;;;8.90;99.90;;;7.80;100.00;98794.75;5072516;28;20475;-72
2021/09/23 00:13:46;;;;;;;14.50;11.07;;;9.00;99.90;;;7.77;100.00;98789.75;5072000;28;20452;-72
2021/09/23 00:16:13;;;;;;;17.13;10.70;;;9.00;99.30;;;7.74;100.00;98795.47;5070321;28;20464;-71
2021/09/23 00:18:42;;;;;;;13.40;10.30;;;9.00;99.30;;;7.71;100.00;98791.28;5067165;28;20493;-72
2021/09/23 00:21:09;;;;;;;11.97;10.23;;;8.90;99.90;;;7.84;100.00;98792.56;5072403;28;20529;-71
2021/09/23 00:23:36;;;;;;;12.70;10.43;;;9.00;99.90;;;7.82;99.68;98791.91;5070553;28;20638;-72
2021/09/23 00:26:03;;;;;;;22.20;11.20;;;9.00;98.60;;;7.71;99.44;98801.22;5059501;28;20572;-71
2021/09/23 00:28:31;;;;;;;12.40;9.77;;;9.00;97.60;;;7.51;100.00;98780.16;5069659;28;20552;-72
2021/09/23 00:30:58;;;;;;;11.70;10.50;;;8.80;97.90;;;7.45;99.92;98783.53;5072099;28;20504;-72
2021/09/23 00:33:24;;;;;;;12.30;11.03;;;8.70;98.10;;;7.39;100.00;98778.88;5071105;28;20907;-74
2021/09/23 00:35:53;;;;;;;14.50;10.80;;;8.60;99.90;;;7.46;100.00;98783.38;5071475;28;20571;-73
2021/09/23 00:38:20;;;;;;;13.93;11.73;;;8.70;99.90;;;7.56;100.00;98783.16;5064893;28;20491;-73
2021/09/23 00:40:47;;;;;;;16.50;10.60;;;8.70;99.90;;;7.35;100.00;98768.50;5070741;28;20863;-74
2021/09/23 00:43:14;;;;;;;11.57;10.37;;;8.70;99.90;;;7.52;100.00;98781.84;5073269;28;20460;-73
2021/09/23 00:45:41;;;;;;;14.13;11.00;;;8.70;99.90;;;7.55;100.00;98780.63;5069917;28;21056;-74
2021/09/23 00:48:08;;;;;;;11.30;10.17;;;8.80;99.70;;;7.62;100.00;98778.91;5071499;28;20496;-72
2021/09/23 00:50:35;;;;;;;11.93;10.50;;;8.80;99.70;;;7.56;99.78;98779.59;5069639;28;20477;-74
2021/09/23 00:53:03;;;;;;;14.83;11.33;;;8.80;98.60;;;7.59;99.21;98780.09;5071049;28;20556;-72
2021/09/23 00:55:31;;;;;;;12.27;10.03;;;8.80;97.80;;;7.44;99.92;98779.19;5071313;28;20480;-71
2021/09/23 00:57:58;;;;;;;11.60;10.40;;;8.70;98.30;;;7.50;99.17;98781.16;5071738;28;20484;-71
2021/09/23 01:00:25;;;;;;;13.80;10.70;;;8.70;98.30;;;7.35;99.96;98773.88;5069638;28;20461;-72
2021/09/23 01:02:52;;;;;;;10.90;9.80;;;8.60;98.50;;;7.39;99.73;98765.44;5070392;28;20532;-72
2021/09/23 01:05:19;;;;;;;15.20;11.37;;;8.60;98.60;;;7.35;99.53;98746.97;5070144;28;20472;-71
2021/09/23 01:07:49;;;;;;;11.97;10.70;;;8.60;98.50;;;7.25;100.00;98757.09;5069182;28;20456;-72
2021/09/23 01:10:20;;;;;;;11.60;9.70;;;8.50;98.60;;;7.23;100.00;98753.75;5071371;28;20560;-72
2021/09/23 01:12:49;;;;;;;12.90;10.50;;;8.50;99.00;;;7.26;99.79;98757.94;5070035;28;20452;-72
2021/09/23 01:15:17;;;;;;;13.10;11.37;;;8.50;98.80;;;7.23;99.90;98751.91;5070969;28;20576;-72
2021/09/23 01:17:45;;;;;;;15.37;11.23;;;8.50;99.00;;;7.31;99.73;98744.81;5068593;28;20655;-73
2021/09/23 01:20:13;;;;;;;11.90;10.70;;;8.50;98.80;;;7.19;99.67;98747.91;5069950;28;20503;-72
2021/09/23 01:22:42;;;;;;;15.53;12.10;;;8.40;98.40;;;7.20;100.00;98748.72;5068884;28;20506;-74
2021/09/23 01:25:10;;;;;;;13.03;10.80;;;8.40;99.20;;;7.20;99.58;98754.09;5068787;28;20567;-72
2021/09/23 01:27:37;;;;;;;13.63;11.80;;;8.40;98.50;;;7.14;100.00;98755.66;5071999;28;20549;-72
2021/09/23 01:30:06;;;;;;;11.90;10.70;;;8.40;99.20;;;7.09;99.81;98758.00;5069697;28;20453;-72
2021/09/23 01:32:33;;;;;;;13.27;10.70;;;8.30;98.70;;;7.06;100.00;98750.31;5068197;28;20956;-72
2021/09/23 01:35:00;;;;;;;14.67;11.00;;;8.30;98.80;;;6.95;100.00;98748.84;5061832;28;20523;-72
2021/09/23 01:37:27;;;;;;;10.80;9.77;;;8.20;99.30;;;7.05;100.00;98743.25;5070256;28;20960;-72
2021/09/23 01:39:55;;;;;;;13.60;10.83;;;8.20;99.90;;;7.04;100.00;98741.59;5070303;28;20489;-72
2021/09/23 01:42:23;;;;;;;13.33;10.93;;;8.30;99.90;;;6.97;100.00;98741.44;5069167;28;20506;-71
2021/09/23 01:44:50;;;;;;;13.77;11.60;;;8.20;99.90;;;6.97;100.00;98743.28;5055679;28;20472;-72
2021/09/23 01:47:17;;;;;;;12.00;10.67;;;8.20;99.90;;;6.96;100.00;98742.47;5067519;28;20884;-72
2021/09/23 01:49:44;;;;;;;12.30;10.97;;;8.20;99.80;;;6.93;100.00;98742.81;5076630;28;20459;-73
2021/09/23 01:52:11;;;;;;;11.50;10.30;;;8.20;99.90;;;6.93;100.00;98738.25;5069682;28;21055;-72
2021/09/23 01:54:38;;;;;;;12.33;11.00;;;8.20;99.90;;;6.91;100.00;98734.09;5062733;28;20547;-72
2021/09/23 01:57:06;;;;;;;13.93;10.57;;;8.10;99.90;;;6.96;100.00;98734.41;5070613;28;20834;-72
2021/09/23 01:59:33;;;;;;;13.63;10.90;;;8.20;99.80;;;6.92;100.00;98730.38;5069335;28;20467;-72
2021/09/23 02:02:00;;;;;;;14.17;10.60;;;8.10;99.40;;;6.85;100.00;98729.41;5066473;28;21019;-71
2021/09/23 02:04:30;;;;;;;13.47;10.87;;;8.10;99.40;;;6.87;100.00;98724.69;5064616;28;20473;-72
2021/09/23 02:06:57;;;;;;;13.40;11.30;;;8.10;99.60;;;6.88;100.00;98723.66;5062820;28;20539;-70
2021/09/23 02:09:24;;;;;;;15.77;11.97;;;8.10;99.30;;;6.82;100.00;98719.81;5066923;28;20523;-71
2021/09/23 02:11:51;;;;;;;16.00;11.50;;;8.10;99.60;;;6.86;100.00;98723.00;5068875;28;20495;-72
2021/09/23 02:14:19;;;;;;;12.20;10.90;;;8.10;99.90;;;6.84;100.00;98719.66;5065189;28;20484;-71
2021/09/23 02:16:46;;;;;;;14.73;11.53;;;8.00;99.90;;;6.74;100.00;98711.81;5068794;28;20843;-72
2021/09/23 02:19:13;;;;;;;12.93;11.10;;;8.00;99.90;;;6.73;100.00;98718.19;5070485;28;20510;-72
2021/09/23 02:21:40;;;;;;;14.67;10.63;;;8.00;99.90;;;6.73;100.00;98710.97;5070306;28;20740;-71
2021/09/23 02:24:07;;;;;;;13.17;10.67;;;8.00;99.90;;;6.87;100.00;98717.47;5069432;28;20476;-71
2021/09/23 02:26:34;;;;;;;14.23;10.70;;;8.00;99.90;;;6.79;100.00;98709.44;5065396;28;20459;-73
2021/09/23 02:29:01;;;;;;;14.13;11.20;;;8.00;99.90;;;6.66;100.00;98700.06;5071217;28;20899;-73
2021/09/23 02:31:29;;;;;;;14.30;11.83;;;7.90;99.90;;;6.68;100.00;98697.22;5069632;28;20938;-73
2021/09/23 02:33:56;;;;;;;12.43;10.90;;;8.00;99.90;;;6.71;100.00;98683.44;5069413;28;20849;-72
2021/09/23 02:36:23;;;;;;;15.60;11.87;;;7.90;99.90;;;6.66;100.00;98680.47;5063656;28;20462;-73
2021/09/23 02:38:50;;;;;;;13.57;12.20;;;8.00;99.70;;;6.61;100.00;98675.59;5063674;28;20647;-73
2021/09/23 02:41:17;;;;;;;15.20;11.90;;;7.90;99.90;;;6.59;100.00;98671.41;5071102;28;20448;-73
2021/09/23 02:43:44;;;;;;;11.47;10.30;;;7.90;99.90;;;6.68;100.00;98681.13;5067520;28;20523;-73
2021/09/23 02:46:10;;;;;;;13.40;10.80;;;7.90;99.90;;;6.62;100.00;98665.72;5071127;28;20460;-75
2021/09/23 02:48:39;;;;;;;14.97;10.83;;;7.90;99.90;;;6.71;100.00;98661.97;5067961;28;20539;-72
2021/09/23 02:51:08;;;;;;;12.60;10.90;;;7.90;99.90;;;6.61;100.00;98659.50;5070429;28;20457;-72
2021/09/23 02:53:35;;;;;;;13.70;12.30;;;7.90;99.70;;;6.60;100.00;98657.00;5074406;28;20452;-74
2021/09/23 02:56:02;;;;;;;14.10;11.30;;;7.80;99.90;;;6.63;100.00;98656.66;5068524;28;20850;-73
2021/09/23 02:58:29;;;;;;;12.03;10.83;;;7.80;99.90;;;6.61;100.00;98642.56;5071046;28;20466;-72
2021/09/23 03:00:56;;;;;;;12.50;10.73;;;7.80;99.90;;;6.54;100.00;98637.06;5070324;28;20543;-73
2021/09/23 03:03:23;;;;;;;13.83;11.37;;;7.80;99.90;;;6.52;100.00;98644.41;5068084;28;20471;-72
2021/09/23 03:05:52;;;;;;;14.43;11.40;;;7.80;99.90;;;6.56;100.00;98650.28;5070816;28;20550;-72
2021/09/23 03:08:20;;;;;;;12.93;11.30;;;7.80;99.90;;;6.48;100.00;98646.63;5065176;28;20550;-71
2021/09/23 03:10:47;;;;;;;14.73;10.63;;;7.80;99.90;;;6.38;100.00;98632.56;5066122;28;20563;-72
2021/09/23 03:13:13;;;;;;;13.33;10.87;;;7.70;99.90;;;6.56;100.00;98640.41;5068327;28;20445;-73
2021/09/23 03:15:41;;;;;;;15.10;10.60;;;7.70;99.90;;;6.49;100.00;98639.41;5066198;28;20571;-73
2021/09/23 03:18:07;;;;;;;13.30;11.57;;;7.70;99.90;;;6.38;100.00;98632.56;5070047;28;20547;-73
2021/09/23 03:20:35;;;;;;;12.17;10.23;;;7.70;99.90;;;6.36;100.00;98622.00;5067835;28;20461;-71
2021/09/23 03:23:03;;;;;;;12.30;11.00;;;7.60;99.90;;;6.40;100.00;98619.81;5067454;28;20532;-73
2021/09/23 03:25:30;;;;;;;13.47;11.30;;;7.60;99.90;;;6.43;100.00;98621.31;5066485;28;20484;-72
2021/09/23 03:27:57;;;;;;;15.00;11.30;;;7.70;99.90;;;6.50;100.00;98625.81;5071303;28;20470;-68
2021/09/23 03:30:24;;;;;;;14.50;10.90;;;7.70;99.90;;;6.36;100.00;98624.69;5071002;28;20457;-73
2021/09/23 03:32:52;;;;;;;12.30;11.13;;;7.70;99.10;;;6.32;100.00;98618.00;5072650;28;20472;-74
2021/09/23 03:35:21;;;;;;;12.67;11.23;;;7.60;99.70;;;6.24;100.00;98616.16;5072930;28;21008;-72
2021/09/23 03:37:48;;;;;;;12.43;11.13;;;7.60;99.90;;;6.23;100.00;98611.81;5072162;28;20530;-72
2021/09/23 03:40:16;;;;;;;14.33;11.37;;;7.50;99.90;;;6.12;100.00;98596.06;5071984;28;20577;-72
2021/09/23 03:42:43;;;;;;;14.07;11.97;;;7.40;99.90;;;6.17;100.00;98593.75;5069179;28;20544;-72
2021/09/23 03:45:11;;;;;;;14.90;11.70;;;7.40;99.90;;;6.16;100.00;98591.22;5069560;28;20515;-73
2021/09/23 03:47:38;;;;;;;14.77;11.80;;;7.40;99.90;;;6.17;100.00;98599.09;5072943;28;20543;-73
2021/09/23 03:50:06;;;;;;;14.93;11.63;;;7.40;99.90;;;6.22;100.00;98591.34;5069283;28;21057;-73
2021/09/23 03:52:34;;;;;;;12.30;11.10;;;7.40;99.90;;;6.14;100.00;98593.25;5071418;28;20516;-73
2021/09/23 03:55:01;;;;;;;15.27;12.20;;;7.40;99.90;;;6.12;100.00;98590.72;5072297;28;20525;-72
2021/09/23 03:57:29;;;;;;;12.40;11.10;;;7.40;99.90;;;6.09;100.00;98589.22;5070151;28;21007;-73
2021/09/23 03:59:56;;;;;;;15.40;11.77;;;7.40;99.90;;;6.05;100.00;98585.19;5077351;28;20467;-73
2021/09/23 04:02:23;;;;;;;17.87;11.10;;;7.30;99.90;;;5.95;100.00;98573.81;5074061;28;20452;-73
2021/09/23 04:04:50;;;;;;;13.17;11.50;;;7.30;99.90;;;5.96;100.00;98581.69;5069350;28;20563;-72
2021/09/23 04:07:17;;;;;;;14.00;11.40;;;7.30;99.90;;;5.93;100.00;98579.34;5072616;28;20469;-72
2021/09/23 04:09:44;;;;;;;11.30;10.10;;;7.30;99.90;;;6.02;100.00;98584.72;5071922;28;20984;-73
2021/09/23 04:12:11;;;;;;;13.70;11.43;;;7.20;99.90;;;5.99;100.00;98591.22;5070193;28;20468;-73
2021/09/23 04:14:40;;;;;;;14.90;11.00;;;7.30;99.90;;;5.98;100.00;98588.72;5078118;28;21058;-72
2021/09/23 04:17:07;;;;;;;12.03;10.83;;;7.20;99.90;;;5.92;100.00;98599.13;5067630;28;20500;-74
2021/09/23 04:19:34;;;;;;;12.03;10.53;;;7.20;99.90;;;5.85;100.00;98590.09;5070310;28;20512;-73
2021/09/23 04:22:01;;;;;;;12.33;10.77;;;7.20;99.90;;;5.85;100.00;98594.63;5066943;28;20956;-70
2021/09/23 04:24:28;;;;;;;14.40;11.37;;;7.20;99.90;;;5.85;100.00;98600.84;5070513;28;20995;-71
2021/09/23 04:26:55;;;;;;;14.27;10.50;;;7.10;99.80;;;5.76;100.00;98591.13;5064619;28;20474;-71
2021/09/23 04:29:22;;;;;;;12.10;10.70;;;7.10;99.90;;;5.81;100.00;98583.38;5068461;28;20453;-72
2021/09/23 04:31:50;;;;;;;12.30;10.70;;;7.00;99.90;;;5.79;100.00;98569.31;5069641;28;20469;-72
2021/09/23 04:34:18;;;;;;;12.57;10.80;;;7.10;99.90;;;5.82;100.00;98571.66;5070614;28;20563;-71
2021/09/23 04:36:53;;;;;;;11.73;10.33;;;7.10;99.90;;;5.69;100.00;98545.38;5060030;28;20986;-72
2021/09/23 04:39:22;;;;;;;11.83;10.53;;;7.10;99.90;;;5.73;100.00;98559.28;5071219;28;20492;-73
2021/09/23 04:41:49;;;;;;;14.53;12.03;;;7.10;99.90;;;5.85;100.00;98574.00;5069586;28;20455;-72
2021/09/23 04:44:16;;;;;;;15.87;11.33;;;7.10;99.90;;;5.85;100.00;98582.06;5068055;28;21046;-73
2021/09/23 04:46:43;;;;;;;13.03;11.20;;;7.10;99.80;;;5.76;100.00;98586.59;5067218;28;21018;-73
2021/09/23 04:49:12;;;;;;;13.17;10.23;;;7.10;98.60;;;5.71;100.00;98586.25;5071540;28;20463;-73
2021/09/23 04:51:40;;;;;;;14.17;11.03;;;7.00;99.10;;;5.72;100.00;98582.56;5063472;28;20972;-73
2021/09/23 04:54:07;;;;;;;12.70;11.27;;;7.00;99.20;;;5.65;100.00;98562.81;5071726;28;20469;-75
2021/09/23 04:56:34;;;;;;;16.33;11.67;;;7.00;99.10;;;5.69;100.00;98569.50;5070221;28;20464;-73
2021/09/23 04:59:01;;;;;;;13.70;11.80;;;7.00;99.40;;;5.70;100.00;98560.47;5062524;28;20948;-72
2021/09/23 05:01:29;;;;;;;15.57;11.77;;;7.00;99.90;;;5.75;100.00;98554.59;5067043;28;20535;-72
2021/09/23 05:03:56;;;;;;;14.70;12.03;;;7.00;99.90;;;5.82;100.00;98563.59;5067938;28;20496;-73
2021/09/23 05:06:24;;;;;;;14.27;11.97;;;7.10;99.90;;;5.85;100.00;98557.94;5069343;28;20953;-72
2021/09/23 05:08:52;;;;;;;12.73;11.37;;;7.10;99.10;;;5.79;100.00;98558.59;5063665;28;20460;-72
2021/09/23 05:11:19;;;;;;;12.20;10.83;;;7.10;98.20;;;5.82;100.00;98556.41;5062810;28;20450;-73
2021/09/23 05:13:46;;;;;;;16.00;11.23;;;7.10;98.10;;;5.89;100.00;98555.72;5070027;28;20453;-73
2021/09/23 05:16:13;;;;;;;12.80;11.50;;;7.20;97.80;;;5.88;100.00;98549.53;5067401;28;21033;-74
2021/09/23 05:18:41;;;;;;;14.97;11.57;;;7.20;97.50;;;5.85;100.00;98544.50;5067287;28;20553;-73
2021/09/23 05:21:08;;;;;;;13.80;11.20;;;7.20;97.40;;;5.89;99.93;98543.16;5071260;28;20457;-72
2021/09/23 05:23:36;;;;;;;14.73;10.57;;;7.20;97.00;;;5.92;99.59;98545.47;5069349;28;20999;-73
2021/09/23 05:26:04;;;;;;;12.20;10.50;;;7.20;96.60;;;5.82;99.18;98544.84;5068300;28;20961;-72
2021/09/23 05:28:32;;;;;;;17.60;10.93;;;7.20;96.10;;;5.87;98.94;98553.22;5067563;28;20457;-72
2021/09/23 05:30:59;;;;;;;11.57;10.10;;;7.20;95.90;;;5.82;98.45;98539.47;5077243;28;20467;-72
2021/09/23 05:33:26;;;;;;;15.17;10.67;;;7.20;95.60;;;5.84;98.61;98544.69;5065716;28;20558;-73
2021/09/23 05:35:53;;;;;;;14.40;10.27;;;7.20;95.30;;;5.88;98.44;98546.84;5057746;28;20531;-72
2021/09/23 05:38:22;;;;;;;13.40;10.10;;;7.20;95.70;;;6.03;97.80;98538.13;5063789;28;20479;-70
2021/09/23 05:40:51;;;;;;;14.30;10.50;;;7.30;95.40;;;6.01;97.73;98538.28;5066323;28;20460;-70
2021/09/23 05:43:18;;;;;;;19.30;12.30;;;7.40;94.40;;;6.06;97.83;98532.41;5062810;28;20484;-71
2021/09/23 05:45:45;;;;;;;57.13;15.90;;;7.40;94.50;;;6.14;97.68;98534.22;5063215;28;20989;-72
2021/09/23 05:48:12;;;;;;;12.80;10.97;;;7.40;94.50;;;6.09;97.07;98534.72;5066810;28;20468;-71
2021/09/23 05:50:39;;;;;;;24.53;11.20;;;7.40;93.80;;;6.12;96.82;98534.38;5066767;28;20456;-71
2021/09/23 05:53:06;;;;;;;41.57;13.03;;;7.40;94.30;;;6.18;96.97;98536.38;5068664;28;20492;-71
2021/09/23 05:55:35;;;;;;;15.90;10.63;;;7.50;94.20;;;6.15;96.76;98539.41;5067516;28;20491;-72
2021/09/23 05:58:04;;;;;;;13.40;10.60;;;7.50;94.10;;;6.28;96.95;98541.53;5067699;28;20509;-73
2021/09/23 06:00:31;;;;;;;14.90;10.60;;;7.50;94.30;;;6.32;97.20;98534.78;5056233;28;20930;-71
2021/09/23 06:02:59;;;;;;;12.50;10.83;;;7.60;94.00;;;6.37;96.51;98531.59;5057734;28;20481;-75
2021/09/23 06:05:27;;;;;;;16.07;12.00;;;7.60;93.70;;;6.49;96.33;98527.50;5067007;28;20484;-70
2021/09/23 06:07:54;;;;;;;21.20;13.07;;;7.70;93.50;;;6.59;95.68;98526.41;5058982;28;20552;-69
2021/09/23 06:10:21;;;;;;;21.53;12.07;;;7.80;92.80;;;6.63;95.94;98527.75;5061391;28;20460;-69
2021/09/23 06:12:48;;;;;;;12.80;10.27;;;7.90;92.90;;;6.68;94.98;98528.06;5062492;28;20494;-69
2021/09/23 06:15:17;;;;;;;13.70;10.90;;;8.00;92.60;;;6.89;94.81;98540.00;5063820;28;20480;-68
2021/09/23 06:17:44;;;;;;;14.80;10.00;;;8.00;92.80;;;6.93;93.94;98538.63;5064193;28;20445;-70
2021/09/23 06:20:12;;;;;;;12.30;10.40;;;8.10;91.90;;;6.94;94.43;98537.63;5054810;28;20471;-70
2021/09/23 06:22:39;;;;;;;11.77;10.33;;;8.20;91.50;;;6.99;93.86;98537.09;5059253;28;20476;-70
2021/09/23 06:25:08;;;;;;;20.27;11.20;;;8.30;91.60;;;7.20;93.57;98531.00;5054130;28;20476;-69
2021/09/23 06:27:35;;;;;;;24.03;11.20;;;8.40;91.50;;;7.17;92.81;98529.53;5065725;28;20464;-69
2021/09/23 06:30:02;;;;;;;12.03;10.80;;;8.50;90.70;;;7.35;92.53;98520.31;5065497;28;20555;-68
2021/09/23 06:32:31;;;;;;;15.20;11.70;;;8.60;90.90;;;7.74;92.12;98521.09;5062384;28;20554;-69
2021/09/23 06:34:58;;;;;;;14.83;11.40;;;8.80;90.60;;;7.76;91.12;98508.31;5060454;28;20616;-68
2021/09/23 06:37:24;;;;;;;19.13;12.30;;;8.90;90.10;;;7.94;90.45;98507.94;5059489;28;20452;-68
2021/09/23 06:39:51;;;;;;;14.00;11.70;;;9.10;89.10;;;8.04;90.35;98507.66;5060257;28;20992;-68
2021/09/23 06:42:18;;;;;;;13.47;10.40;;;9.20;88.00;;;8.19;89.23;98505.78;5053400;28;20497;-68
2021/09/23 06:44:45;;;;;;;14.60;13.03;;;9.30;87.30;;;8.31;90.10;98510.69;5061082;28;20477;-67
2021/09/23 06:47:13;;;;;;;12.37;11.07;;;9.40;88.60;;;8.30;88.63;98507.13;5059844;28;20918;-68
2021/09/23 06:49:42;;;;;;;13.00;10.50;;;9.50;86.30;;;8.38;88.20;98498.13;5065101;28;20889;-68
2021/09/23 06:52:10;;;;;;;11.67;10.40;;;9.60;85.60;;;8.33;88.86;98497.88;5065236;28;20471;-67
2021/09/23 06:54:37;;;;;;;11.80;10.60;;;9.60;85.20;;;8.41;88.58;98499.59;5065754;28;20902;-67
2021/09/23 06:57:04;;;;;;;14.47;11.33;;;9.60;86.00;;;8.70;87.89;98506.78;5058636;28;20468;-67
2021/09/23 06:59:31;;;;;;;14.03;12.17;;;9.80;85.50;;;9.08;87.33;98503.00;5063437;28;20476;-67
2021/09/23 07:01:58;;;;;;;12.87;11.47;;;10.10;84.90;;;9.34;86.88;98506.94;5062652;28;20464;-67
2021/09/23 07:04:26;;;;;;;15.63;10.03;;;10.30;84.30;;;9.35;84.40;98504.06;5061266;28;20468;-65
2021/09/23 07:06:54;;;;;;;11.03;9.57;;;10.50;81.50;;;9.35;85.02;98501.38;5060939;28;20467;-65
2021/09/23 07:09:21;;;;;;;14.47;11.63;;;10.50;81.30;;;9.36;84.62;98504.88;5066018;28;20452;-65
2021/09/23 07:11:48;;;;;;;12.07;10.43;;;10.60;81.00;;;9.54;85.47;98503.56;5065299;28;20546;-65
2021/09/23 07:14:15;;;;;;;11.73;9.87;;;10.60;81.50;;;9.66;84.16;98493.06;5063343;28;20839;-65
2021/09/23 07:16:42;;;;;;;13.33;9.90;;;10.80;81.40;;;9.91;83.68;98502.34;5063210;28;20909;-66
2021/09/23 07:19:09;;;;;;;11.33;10.20;;;11.00;80.90;;;9.97;83.27;98505.28;5059305;28;20540;-65
2021/09/23 07:21:36;;;;;;;11.57;10.33;;;11.00;79.80;;;10.06;83.94;98506.78;5063130;28;20499;-64
2021/09/23 07:24:05;;;;;;;14.40;9.20;;;11.20;81.70;;;10.30;81.06;98502.72;5057656;28;20564;-63
2021/09/23 07:26:32;;;;;;;14.53;11.23;;;11.40;78.20;;;10.41;80.94;98511.31;5061229;28;20970;-63
2021/09/23 07:29:00;;;;;;;14.50;10.00;;;11.40;78.60;;;10.53;81.07;98501.59;5063169;28;20472;-63
2021/09/23 07:31:27;;;;;;;12.43;11.17;;;11.60;78.10;;;10.55;81.64;98506.81;5065903;28;20474;-63
2021/09/23 07:33:54;;;;;;;14.10;11.33;;;11.60;78.20;;;10.67;79.75;98502.44;5066233;28;20993;-63
2021/09/23 07:36:21;;;;;;;12.20;10.30;;;11.70;77.40;;;10.88;80.17;98498.75;5062063;28;20959;-64
2021/09/23 07:38:48;;;;;;;14.50;11.00;;;11.80;77.50;;;10.63;79.93;98487.69;5061481;28;20472;-66
2021/09/23 07:41:17;;;;;;;11.70;10.10;;;11.80;76.20;;;10.96;79.63;98484.22;5055974;28;20457;-65
2021/09/23 07:43:44;;;;;;;12.17;9.53;;;12.00;76.80;;;11.09;78.09;98485.25;5062428;28;21014;-67
2021/09/23 07:46:11;;;;;;;14.00;10.10;;;12.10;75.50;;;11.11;78.68;98483.19;5063161;28;20530;-63
2021/09/23 07:48:38;;;;;;;10.67;9.57;;;12.10;75.60;;;11.20;77.64;98476.53;5057755;28;20826;-70
2021/09/23 07:51:05;;;;;;;14.03;11.23;;;12.30;74.70;;;11.29;77.68;98469.03;5061992;28;20972;-65
2021/09/23 07:53:33;;;;;;;11.63;10.53;;;12.40;74.70;;;11.30;77.95;98474.25;5062257;28;20568;-64
2021/09/23 07:56:00;;;;;;;13.07;9.93;;;12.40;74.10;;;11.42;77.88;98484.41;5063238;28;21011;-65
2021/09/23 07:58:28;;;;;;;15.47;12.97;;;12.50;74.10;;;11.25;78.90;98478.63;5062311;28;20482;-64
2021/09/23 08:00:55;;;;;;;13.97;11.13;;;12.40;74.60;;;11.14;79.88;98480.91;5066038;28;20534;-65
2021/09/23 08:03:22;;;;;;;13.30;11.13;;;12.30;75.00;;;11.30;78.70;98470.72;5060062;28;21149;-66
2021/09/23 08:05:49;;;;;;;11.23;10.07;;;12.40;74.60;;;11.38;78.13;98464.25;5061624;28;20480;-65
2021/09/23 08:08:16;;;;;;;13.37;11.10;;;12.50;74.30;;;11.52;77.24;98462.34;5064549;28;20536;-65
2021/09/23 08:10:44;;;;;;;12.73;10.43;;;12.60;73.70;;;11.75;77.26;98470.00;5063161;28;20488;-65
2021/09/23 08:13:12;;;;;;;12.20;11.00;;;12.80;73.70;;;11.93;76.21;98465.81;5063161;28;20890;-65
2021/09/23 08:15:41;;;;;;;12.33;10.23;;;12.90;73.20;;;12.00;76.31;98474.72;5064910;28;21028;-65
2021/09/23 08:18:09;;;;;;;11.23;9.87;;;13.00;72.80;;;12.12;75.22;98472.22;5068220;28;20453;-66
2021/09/23 08:20:36;;;;;;;13.90;9.90;;;13.20;72.10;;;12.32;74.97;98464.84;5061096;28;21013;-66
2021/09/23 08:23:04;;;;;;;10.90;8.77;;;13.30;72.00;;;12.46;74.09;98462.06;5065999;28;20539;-65
2021/09/23 08:25:32;;;;;;;11.17;7.90;;;13.50;71.00;;;12.92;71.92;98465.50;5066290;28;20520;-65
2021/09/23 08:27:59;;;;;;;8.60;7.63;;;13.80;70.00;;;13.02;70.74;98454.19;5067880;28;20460;-65
2021/09/23 08:30:26;;;;;;;13.77;8.70;;;14.00;68.70;;;13.01;70.10;98458.78;5064365;28;20695;-65
2021/09/23 08:32:54;;;;;;;8.47;7.63;;;14.00;67.50;;;13.07;69.16;98442.66;5068123;28;20552;-66
2021/09/23 08:35:22;;;;;;;8.37;6.80;;;14.10;66.90;;;13.13;69.26;98449.94;5067173;28;21065;-65
2021/09/23 08:37:50;;;;;;;8.30;7.50;;;14.10;66.20;;;13.23;69.03;98444.00;5065980;28;20522;-65
2021/09/23 08:40:17;;;;;;;8.97;7.20;;;14.20;66.40;;;13.38;68.11;98433.63;5065340;28;20509;-65
2021/09/23 08:42:46;;;;;;;8.13;6.30;;;14.30;65.50;;;13.60;66.78;98438.66;5064049;28;20453;-65
2021/09/23 08:45:17;;;;;;;8.03;6.50;;;14.50;64.60;;;13.60;66.20;98439.50;5066776;28;20568;-65
2021/09/23 08:47:45;;;;;;;9.47;6.13;;;14.60;63.50;;;13.83;65.77;98438.00;5061083;28;20460;-65
2021/09/23 08:50:16;;;;;;;7.30;5.90;;;14.80;63.80;;;13.99;65.87;98438.44;5064233;28;20965;-66
2021/09/23 08:52:44;;;;;;;7.27;6.40;;;14.90;64.00;;;14.08;64.59;98434.38;5062618;28;20477;-66
2021/09/23 08:55:23;;;;;;;7.13;6.43;;;15.00;62.90;;;14.16;64.38;98433.22;5062502;28;20567;-66
2021/09/23 08:57:50;;;;;;;7.70;6.00;;;15.10;62.40;;;14.10;64.18;98432.25;5063076;28;20547;-66
2021/09/23 09:00:21;;;;;;;8.63;6.47;;;15.10;61.80;;;14.31;63.27;98427.38;5059854;28;20456;-66
2021/09/23 09:03:01;;;;;;;6.73;5.17;;;15.30;61.60;;;14.26;63.46;98429.97;5067811;28;20449;-66
2021/09/23 09:05:31;;;;;;;5.23;4.73;;;15.30;61.30;;;14.53;62.24;98422.25;5064611;28;20534;-65
2021/09/23 09:08:04;;;;;;;5.73;5.13;;;15.40;60.80;;;14.68;62.56;98413.69;5063111;28;20543;-67
2021/09/23 09:10:32;;;;;;;6.83;5.70;;;15.50;60.90;;;14.57;62.62;98395.44;5067000;28;20464;-66
2021/09/23 09:13:04;;;;;;;5.87;5.27;;;15.60;60.50;;;14.59;62.97;98396.03;5063640;28;20556;-66
2021/09/23 09:15:34;;;;;;;8.07;5.87;;;15.60;60.80;;;14.66;62.36;98393.22;5068304;28;20476;-68
2021/09/23 09:18:17;;;;;;;5.30;4.80;;;15.60;60.60;;;14.80;62.48;98396.59;5058957;28;20457;-68
2021/09/23 09:20:53;;;;;;;6.83;4.60;;;15.70;60.50;;;15.10;60.76;98390.25;5060687;28;20468;-67
2021/09/23 09:23:21;;;;;;;5.70;5.03;;;16.00;60.00;;;15.14;61.01;98388.69;5063072;28;20579;-67
2021/09/23 09:25:48;;;;;;;6.40;5.50;;;16.10;59.80;;;15.23;61.17;98379.09;5063132;28;20502;-68
2021/09/23 09:28:19;;;;;;;6.27;5.40;;;16.20;59.70;;;15.26;61.11;98378.66;5062309;28;20468;-67
2021/09/23 09:30:55;;;;;;;7.83;6.10;;;16.20;59.80;;;15.41;60.63;98377.34;5061906;28;20470;-67
2021/09/23 09:33:23;;;;;;;5.10;4.43;;;16.40;59.80;;;15.62;60.13;98385.94;5062797;28;20476;-67
2021/09/23 09:35:51;;;;;;;13.27;7.33;;;16.50;59.30;;;15.72;60.51;98386.16;5063846;28;20571;-67
2021/09/23 09:38:19;;;;;;;7.63;4.80;;;16.60;59.50;;;15.63;59.84;98382.16;5062019;28;20492;-67
2021/09/23 09:40:54;;;;;;;9.23;5.80;;;16.60;58.60;;;15.57;60.09;98384.78;5064669;28;20476;-67
2021/09/23 09:43:21;;;;;;;5.10;4.57;;;16.50;59.20;;;15.83;59.01;98377.13;5061031;28;20468;-67
2021/09/23 09:45:49;;;;;;;9.13;6.53;;;16.60;58.70;;;15.97;58.73;98371.44;5061207;28;20552;-66
2021/09/23 09:48:29;;;;;;;8.17;4.90;;;16.80;58.80;;;15.82;59.75;98370.03;5067041;28;20457;-66
2021/09/23 09:51:02;;;;;;;5.90;4.40;;;16.80;58.60;;;15.81;59.66;98357.47;5070004;28;20468;-67
2021/09/23 09:53:29;;;;;;;8.40;5.43;;;16.80;58.90;;;15.83;60.03;98357.25;5064539;28;20466;-66
2021/09/23 09:55:56;;;;;;;7.10;4.77;;;16.80;58.90;;;16.17;59.00;98348.38;5066339;28;20551;-67
2021/09/23 09:58:24;;;;;;;6.33;4.50;;;17.00;58.80;;;16.27;58.50;98354.00;5068134;28;20459;-66
2021/09/23 10:00:52;;;;;;;6.33;4.27;;;17.10;58.60;;;16.16;58.55;98357.63;5064012;28;20544;-66
2021/09/23 10:03:19;;;;;;;7.87;5.60;;;17.10;58.10;;;16.17;58.71;98348.38;5078427;28;20615;-66
2021/09/23 10:05:47;;;;;;;8.17;5.07;;;17.10;58.40;;;16.36;58.89;98351.72;5059825;28;21025;-67
2021/09/23 10:08:17;;;;;;;8.53;5.63;;;17.20;58.60;;;16.41;59.57;98333.53;5064129;28;20544;-67
2021/09/23 10:10:44;;;;;;;10.20;5.70;;;17.30;59.00;;;16.58;58.33;98346.38;5060304;28;20475;-68
2021/09/23 10:13:12;;;;;;;7.37;4.77;;;17.40;58.50;;;16.49;58.31;98336.97;5059501;28;20556;-68
2021/09/23 10:15:39;;;;;;;9.73;5.60;;;17.40;58.40;;;16.66;57.71;98329.59;5064349;28;20490;-67
2021/09/23 10:18:06;;;;;;;7.40;6.23;;;17.50;58.50;;;16.76;58.99;98323.47;5063313;28;20463;-67